Time;durP1;ratioP1;P1;durP2;ratioP2;P2;SDS_P1;SDS_P2;PMS_P1;PMS_P2;Temp;Humidity;BMP_temperature;BMP_pressure;BME280_temperature;BME280_humidity;BME280_pressure;Samples;Min_cycle;Max_cycle;Signal;HPM_P1;HPM_P2
2021/11/10 00:01:58;;;;;;;12.82;4.32;;;;;;;20.38;43.15;101888.97;4957172;29;20076;-74
2021/11/10 00:04:24;;;;;;;17.40;4.15;;;;;;;20.39;43.13;101896.94;4956809;29;20046;-75
2021/11/10 00:06:49;;;;;;;13.77;4.55;;;;;;;20.43;43.18;101897.06;4956773;28;20118;-74
2021/11/10 00:09:16;;;;;;;13.80;4.13;;;;;;;20.39;43.20;101896.94;4956169;28;20462;-74
2021/11/10 00:11:42;;;;;;;22.02;4.65;;;;;;;20.51;43.02;101893.38;4957013;29;20031;-75
2021/11/10 00:14:07;;;;;;;11.18;3.53;;;;;;;20.56;42.88;101907.00;4957237;29;20050;-74
2021/11/10 00:16:33;;;;;;;16.63;5.05;;;;;;;20.40;43.17;101912.47;4957107;28;20502;-75
2021/11/10 00:18:59;;;;;;;19.23;5.45;;;;;;;20.33;43.45;101909.47;4956934;28;20466;-74
2021/11/10 00:21:26;;;;;;;17.60;4.38;;;;;;;20.43;43.09;101908.97;4956732;28;20031;-76
2021/11/10 00:23:52;;;;;;;13.45;4.30;;;;;;;20.39;43.27;101918.34;4957071;29;20447;-74
2021/11/10 00:26:18;;;;;;;15.48;4.30;;;;;;;20.35;43.51;101923.00;4956561;28;20027;-74
2021/11/10 00:28:46;;;;;;;13.10;3.88;;;;;;;20.38;43.23;101925.88;4956769;29;20039;-75
2021/11/10 00:31:11;;;;;;;12.23;4.57;;;;;;;20.47;43.05;101926.56;4956608;29;20034;-74
2021/11/10 00:33:37;;;;;;;15.00;4.63;;;;;;;20.33;43.53;101928.91;4956876;28;20410;-75
2021/11/10 00:36:03;;;;;;;16.23;4.75;;;;;;;20.31;43.69;101924.84;4956484;28;20053;-74
2021/11/10 00:38:29;;;;;;;14.32;4.88;;;;;;;20.29;43.69;101933.53;4956799;29;20442;-77
2021/11/10 00:40:55;;;;;;;11.10;4.53;;;;;;;20.36;43.68;101928.19;4956364;29;20074;-74
2021/11/10 00:43:21;;;;;;;17.33;4.97;;;;;;;20.51;43.24;101932.22;4956279;29;20094;-75
2021/11/10 00:45:47;;;;;;;18.85;5.28;;;;;;;20.58;43.16;101932.44;4956336;29;20031;-74
2021/11/10 00:48:12;;;;;;;14.18;4.57;;;;;;;20.42;43.59;101924.03;4956263;29;20040;-74
2021/11/10 00:50:39;;;;;;;12.40;4.57;;;;;;;20.26;44.10;101933.44;4956482;28;20027;-74
2021/11/10 00:53:05;;;;;;;19.17;5.05;;;;;;;20.51;43.55;101932.22;4956294;29;20449;-74
2021/11/10 00:55:32;;;;;;;16.70;5.13;;;;;;;20.43;43.79;101941.47;4956439;29;20035;-73
2021/11/10 00:57:57;;;;;;;14.35;4.38;;;;;;;20.56;43.33;101942.28;4956245;29;20038;-74
2021/11/10 01:00:24;;;;;;;9.27;3.88;;;;;;;20.63;43.17;101946.09;4955920;28;20470;-74
2021/11/10 01:02:50;;;;;;;12.20;3.95;;;;;;;20.39;43.83;101946.91;4956308;28;20035;-74
2021/11/10 01:05:16;;;;;;;12.13;4.15;;;;;;;20.60;43.36;101945.97;4956331;28;20371;-74
2021/11/10 01:07:42;;;;;;;14.48;4.72;;;;;;;20.58;43.33;101943.56;4955951;29;20494;-74
2021/11/10 01:10:09;;;;;;;18.50;5.63;;;;;;;20.60;43.38;101945.97;4955911;29;20031;-74
2021/11/10 01:12:35;;;;;;;10.32;3.53;;;;;;;20.53;43.66;101948.53;4956153;28;20415;-74
2021/11/10 01:15:02;;;;;;;11.75;4.00;;;;;;;20.43;43.66;101947.84;4955882;29;20437;-75
2021/11/10 01:17:27;;;;;;;11.25;4.28;;;;;;;20.52;43.67;101944.16;4956057;29;20031;-76
2021/11/10 01:19:53;;;;;;;17.45;4.88;;;;;;;20.69;43.33;101950.22;4955475;28;20050;-75
2021/11/10 01:22:19;;;;;;;15.80;4.30;;;;;;;20.69;43.28;101947.44;4955914;28;20031;-75
2021/11/10 01:24:47;;;;;;;19.35;5.45;;;;;;;20.73;43.19;101942.81;4955633;29;20034;-75
2021/11/10 01:27:14;;;;;;;14.10;5.00;;;;;;;20.50;43.71;101942.53;4955478;29;20031;-74
2021/11/10 01:29:40;;;;;;;10.45;4.18;;;;;;;20.44;43.68;101949.47;4955521;28;20106;-74
2021/11/10 01:32:07;;;;;;;13.88;5.20;;;;;;;20.40;44.01;101943.00;4955476;29;20074;-76
2021/11/10 01:34:32;;;;;;;15.32;5.22;;;;;;;20.47;43.70;101948.78;4955423;29;20102;-74
2021/11/10 01:36:58;;;;;;;15.77;4.75;;;;;;;20.49;43.82;101943.69;4955706;29;20102;-74
2021/11/10 01:39:24;;;;;;;14.38;4.50;;;;;;;20.77;43.10;101948.44;4955365;28;20090;-75
2021/11/10 01:41:52;;;;;;;14.77;4.65;;;;;;;20.74;43.15;101961.06;4955319;29;20031;-75
2021/11/10 01:44:26;;;;;;;10.50;4.35;;;;;;;20.53;43.79;101967.97;4955509;28;20437;-75
2021/11/10 01:46:55;;;;;;;13.55;3.85;;;;;;;20.56;43.64;101970.06;4955156;29;20031;-75
2021/11/10 01:49:20;;;;;;;15.75;4.95;;;;;;;20.57;43.61;101974.44;4955172;29;20024;-75
2021/11/10 01:51:49;;;;;;;16.85;5.78;;;;;;;20.47;43.76;101970.97;4955118;29;20106;-74
2021/11/10 01:54:20;;;;;;;14.25;4.60;;;;;;;20.48;43.77;101971.81;4955364;28;20034;-75
2021/11/10 01:56:46;;;;;;;13.25;4.55;;;;;;;20.41;43.88;101960.47;4955098;29;20090;-74
2021/11/10 01:59:27;;;;;;;16.92;5.07;;;;;;;20.40;43.95;101969.94;4954931;29;20054;-75
2021/11/10 02:01:53;;;;;;;10.70;4.20;;;;;;;20.47;43.57;101970.16;4955134;29;20074;-74
2021/11/10 02:04:19;;;;;;;25.08;4.63;;;;;;;20.48;43.72;101957.94;4954973;29;20430;-75
2021/11/10 02:06:45;;;;;;;17.27;4.65;;;;;;;20.41;43.74;101964.03;4955104;29;20039;-74
2021/11/10 02:09:10;;;;;;;13.38;4.68;;;;;;;20.41;43.86;101961.28;4954888;29;20443;-75
2021/11/10 02:11:38;;;;;;;17.58;5.47;;;;;;;20.38;43.80;101963.91;4954698;28;20046;-75
2021/11/10 02:14:05;;;;;;;10.48;4.28;;;;;;;20.34;43.85;101958.28;4954880;28;20106;-75
2021/11/10 02:16:31;;;;;;;11.18;4.35;;;;;;;20.29;43.90;101964.06;4954786;28;20031;-74
2021/11/10 02:18:57;;;;;;;15.88;4.68;;;;;;;20.26;43.85;101964.78;4954711;29;20115;-74
2021/11/10 02:21:24;;;;;;;10.00;4.10;;;;;;;20.22;43.82;101966.63;4959826;28;20178;-75
2021/11/10 02:23:50;;;;;;;18.42;5.18;;;;;;;20.13;43.94;101971.47;4973244;28;20397;-74
2021/11/10 02:26:22;;;;;;;12.93;4.18;;;;;;;20.12;44.06;101969.88;4973864;28;20038;-75
2021/11/10 02:28:49;;;;;;;16.38;4.72;;;;;;;20.09;43.85;101965.81;4973865;28;20109;-75
2021/11/10 02:31:15;;;;;;;13.45;4.43;;;;;;;20.06;43.87;101960.97;4973291;28;20512;-77
2021/11/10 02:33:41;;;;;;;11.95;4.30;;;;;;;20.05;43.89;101966.88;4973770;28;20110;-75
2021/11/10 02:36:07;;;;;;;12.80;3.90;;;;;;;20.03;43.87;101966.41;4973860;28;20162;-74
2021/11/10 02:38:33;;;;;;;14.35;4.10;;;;;;;20.00;43.88;101967.91;4973721;28;20393;-74
2021/11/10 02:41:00;;;;;;;16.40;5.22;;;;;;;19.90;43.95;101966.41;4973686;28;20034;-74
2021/11/10 02:43:27;;;;;;;17.05;4.57;;;;;;;19.90;43.83;101960.06;4973744;28;20065;-74
2021/11/10 02:45:54;;;;;;;15.68;4.53;;;;;;;19.88;43.90;101965.94;4973693;28;20466;-75
2021/11/10 02:48:19;;;;;;;14.90;3.90;;;;;;;19.82;43.96;101967.34;4973627;28;20046;-74
2021/11/10 02:50:45;;;;;;;11.35;3.92;;;;;;;19.81;44.16;101970.47;4973604;28;20493;-74
2021/11/10 02:53:12;;;;;;;12.43;5.13;;;;;;;19.77;43.92;101963.97;4973900;28;20110;-75
2021/11/10 02:55:38;;;;;;;13.75;4.15;;;;;;;19.75;43.94;101971.84;4973858;28;20109;-74
2021/11/10 02:58:04;;;;;;;13.48;3.78;;;;;;;19.73;43.92;101974.16;4973599;28;20048;-74
2021/11/10 03:00:31;;;;;;;10.23;4.22;;;;;;;19.63;44.06;101975.41;4973409;28;20066;-75
2021/11/10 03:02:57;;;;;;;13.82;4.18;;;;;;;19.57;44.17;101966.50;4973597;28;20023;-75
2021/11/10 03:05:24;;;;;;;13.55;4.25;;;;;;;19.55;44.34;101965.19;4973121;28;20026;-75
2021/11/10 03:07:50;;;;;;;24.63;6.28;;;;;;;19.53;44.30;101954.44;4973321;28;20030;-74
2021/11/10 03:10:16;;;;;;;11.75;4.38;;;;;;;19.51;44.43;101955.97;4973480;28;20077;-74
2021/11/10 03:12:43;;;;;;;16.27;5.20;;;;;;;19.44;44.51;101961.25;4973515;28;20080;-74
2021/11/10 03:15:10;;;;;;;15.15;4.60;;;;;;;19.43;44.63;101952.13;4973413;28;20110;-75
2021/11/10 03:17:35;;;;;;;10.75;4.68;;;;;;;19.41;44.58;101955.22;4973391;28;20118;-75
2021/11/10 03:20:04;;;;;;;12.70;4.43;;;;;;;19.40;44.71;101948.06;4973294;28;20020;-74
2021/11/10 03:22:29;;;;;;;16.83;5.15;;;;;;;19.43;44.72;101954.91;4973413;28;20026;-74
2021/11/10 03:24:55;;;;;;;14.88;4.43;;;;;;;19.47;44.66;101952.25;4973397;28;20031;-74
2021/11/10 03:27:20;;;;;;;12.70;4.28;;;;;;;19.44;44.84;101955.72;4973587;28;20039;-75
2021/11/10 03:29:53;;;;;;;14.18;4.22;;;;;;;19.39;44.99;101954.75;4973541;28;20374;-74
2021/11/10 03:32:21;;;;;;;14.55;4.32;;;;;;;19.28;45.23;101959.16;4973540;28;20026;-75
2021/11/10 03:34:48;;;;;;;21.98;4.78;;;;;;;19.18;45.49;101959.56;4973148;28;20127;-74
2021/11/10 03:37:15;;;;;;;14.10;5.45;;;;;;;19.25;45.15;101959.00;4973143;28;20038;-74
2021/11/10 03:39:40;;;;;;;19.88;4.93;;;;;;;19.26;44.97;101966.97;4973281;28;20027;-74
2021/11/10 03:42:06;;;;;;;21.33;5.93;;;;;;;19.17;45.20;101960.72;4973155;28;20478;-74
2021/11/10 03:44:33;;;;;;;21.23;4.75;;;;;;;19.16;45.26;101959.09;4975331;28;20035;-75
2021/11/10 03:46:58;;;;;;;13.45;4.05;;;;;;;19.13;45.12;101957.03;4976667;28;20026;-75
2021/11/10 03:49:25;;;;;;;15.20;4.40;;;;;;;19.26;44.79;101960.63;4976766;28;20118;-74
2021/11/10 03:51:52;;;;;;;14.48;4.95;;;;;;;19.06;45.06;101974.19;4976626;28;20030;-74
2021/11/10 03:54:19;;;;;;;17.63;5.05;;;;;;;19.21;44.67;101964.44;4976604;28;20054;-74
2021/11/10 03:56:45;;;;;;;19.52;5.43;;;;;;;19.24;44.49;101974.81;4976829;28;20450;-74
2021/11/10 03:59:12;;;;;;;13.70;4.68;;;;;;;19.15;44.63;101973.31;4976643;28;20023;-76
2021/11/10 04:01:37;;;;;;;19.52;6.53;;;;;;;18.96;45.09;101979.34;4976488;28;20050;-75
2021/11/10 04:04:04;;;;;;;17.10;4.22;;;;;;;18.91;44.94;101977.59;4976500;28;20031;-75
2021/11/10 04:06:30;;;;;;;14.52;4.43;;;;;;;18.86;45.23;101983.34;4976279;28;20125;-74
2021/11/10 04:08:57;;;;;;;10.32;4.25;;;;;;;18.83;45.12;101989.56;4976385;28;20038;-74
2021/11/10 04:11:23;;;;;;;14.38;3.95;;;;;;;18.77;45.21;101988.94;4976603;28;20034;-74
2021/11/10 04:13:52;;;;;;;18.98;4.65;;;;;;;18.75;45.10;101993.22;4976299;28;20390;-75
2021/11/10 04:16:22;;;;;;;15.07;5.38;;;;;;;18.73;45.09;101996.31;4976194;28;20122;-74
2021/11/10 04:18:51;;;;;;;;;;;;;;;18.77;44.99;102000.03;4976886;28;20504;-77
2021/11/10 04:21:18;;;;;;;16.90;4.57;;;;;;;18.92;44.42;102004.13;4976399;28;19918;-74
2021/11/10 04:23:45;;;;;;;10.98;4.43;;;;;;;18.91;44.53;102007.25;4976324;28;20042;-74
2021/11/10 04:26:11;;;;;;;12.10;4.65;;;;;;;18.92;44.50;102011.66;4976213;28;20102;-74
2021/11/10 04:28:37;;;;;;;15.45;4.97;;;;;;;18.78;44.55;102015.50;4976252;28;20573;-74
2021/11/10 04:31:03;;;;;;;13.80;4.82;;;;;;;18.73;44.85;102024.00;4976031;28;20054;-74
2021/11/10 04:33:28;;;;;;;11.15;4.57;;;;;;;18.76;44.74;102022.53;4975897;28;20101;-74
2021/11/10 04:35:54;;;;;;;11.32;3.75;;;;;;;18.67;44.91;102019.00;4975952;28;20109;-74
2021/11/10 04:38:20;;;;;;;18.23;4.53;;;;;;;18.69;44.79;102028.59;4975833;28;20074;-74
2021/11/10 04:40:46;;;;;;;9.23;4.03;;;;;;;18.67;44.93;102033.66;4975763;28;20106;-74
2021/11/10 04:43:12;;;;;;;11.93;3.72;;;;;;;18.65;44.95;102030.38;4975679;28;20034;-74
2021/11/10 04:45:39;;;;;;;10.85;3.78;;;;;;;18.62;44.71;102025.53;4975683;28;20030;-74
2021/11/10 04:48:05;;;;;;;13.57;4.22;;;;;;;18.57;45.04;102029.28;4975509;28;20034;-75
2021/11/10 04:50:31;;;;;;;10.48;4.50;;;;;;;18.59;45.06;102037.28;4975627;28;20092;-74
2021/11/10 04:52:58;;;;;;;15.07;4.82;;;;;;;18.60;45.04;102047.19;4975816;28;20434;-74
2021/11/10 04:55:24;;;;;;;24.45;5.45;;;;;;;18.64;45.10;102042.59;4975441;28;20031;-74
2021/11/10 04:57:50;;;;;;;10.88;4.57;;;;;;;18.70;45.04;102040.47;4976004;28;20037;-74
2021/11/10 05:00:15;;;;;;;11.05;4.65;;;;;;;18.58;45.46;102043.94;4975305;28;20474;-74
2021/11/10 05:02:41;;;;;;;15.52;5.40;;;;;;;18.60;45.45;102044.44;4975390;28;20393;-74
2021/11/10 05:05:07;;;;;;;23.73;6.30;;;;;;;18.64;45.41;102044.56;4975399;28;20030;-74
2021/11/10 05:07:34;;;;;;;14.43;5.22;;;;;;;18.72;45.36;102046.47;4975198;28;20030;-74
2021/11/10 05:10:00;;;;;;;20.13;4.65;;;;;;;18.78;45.33;102047.91;4975313;28;20530;-74
2021/11/10 05:12:26;;;;;;;18.08;5.60;;;;;;;18.73;45.47;102051.69;4975182;28;20118;-74
2021/11/10 05:14:53;;;;;;;19.25;4.60;;;;;;;18.76;45.58;102048.25;4975142;28;20031;-74
2021/11/10 05:17:25;;;;;;;13.48;4.82;;;;;;;18.79;45.58;102058.63;4975352;28;20038;-74
2021/11/10 05:19:51;;;;;;;16.25;5.22;;;;;;;18.78;45.48;102047.91;4975009;28;20031;-74
2021/11/10 05:22:17;;;;;;;12.07;4.55;;;;;;;18.87;45.54;102053.38;4975034;28;20034;-74
2021/11/10 05:24:43;;;;;;;17.35;5.35;;;;;;;18.84;45.53;102058.44;4973441;28;20097;-74
2021/11/10 05:27:09;;;;;;;16.48;6.35;;;;;;;18.82;45.67;102054.41;4974796;28;20035;-74
2021/11/10 05:29:34;;;;;;;11.23;5.15;;;;;;;19.04;45.31;102064.31;4974809;28;20030;-75
2021/11/10 05:32:00;;;;;;;21.40;5.88;;;;;;;19.12;45.01;102055.94;4975096;28;20027;-75
2021/11/10 05:34:26;;;;;;;17.13;5.32;;;;;;;19.15;45.01;102064.72;4975086;28;20367;-74
2021/11/10 05:36:52;;;;;;;17.50;6.00;;;;;;;19.14;44.93;102058.38;4974732;28;20398;-74
2021/11/10 05:39:19;;;;;;;22.27;6.80;;;;;;;19.12;45.01;102047.63;4974766;28;20031;-75
2021/11/10 05:41:45;;;;;;;12.30;4.97;;;;;;;19.13;44.98;102051.22;4974925;28;20030;-74
2021/11/10 05:44:13;;;;;;;18.33;5.97;;;;;;;19.15;44.99;102065.53;4974854;28;20110;-74
2021/11/10 05:46:39;;;;;;;16.80;6.30;;;;;;;19.12;45.04;102060.69;4974554;28;20038;-76
2021/11/10 05:49:05;;;;;;;17.60;6.28;;;;;;;19.16;44.94;102053.28;4974460;28;20042;-73
2021/11/10 05:51:30;;;;;;;14.80;6.05;;;;;;;19.13;45.09;102062.31;4974667;28;20027;-73
2021/11/10 05:53:57;;;;;;;18.98;6.25;;;;;;;19.12;45.17;102064.25;4974388;28;20390;-73
2021/11/10 05:56:25;;;;;;;15.43;6.68;;;;;;;19.04;45.44;102058.78;4974368;28;20038;-73
2021/11/10 05:58:52;;;;;;;17.77;6.95;;;;;;;19.11;45.19;102051.53;4974479;28;20101;-73
2021/11/10 06:01:18;;;;;;;16.70;6.50;;;;;;;19.12;45.19;102046.84;4974160;28;20058;-75
2021/11/10 06:03:44;;;;;;;16.08;6.25;;;;;;;19.04;45.42;102054.06;4957020;28;20605;-73
2021/11/10 06:06:10;;;;;;;14.88;6.70;;;;;;;19.13;45.33;102057.56;4973462;28;20034;-73
2021/11/10 06:08:39;;;;;;;20.02;6.30;;;;;;;19.10;45.31;102062.97;4974259;28;20050;-73
2021/11/10 06:11:09;;;;;;;25.30;8.57;;;;;;;19.08;45.51;102054.19;4974143;28;20493;-73
2021/11/10 06:13:37;;;;;;;20.58;6.53;;;;;;;19.07;45.43;102058.09;4974429;28;20393;-74
2021/11/10 06:16:03;;;;;;;20.80;7.70;;;;;;;19.07;45.37;102056.16;4974127;28;20050;-75
2021/11/10 06:18:29;;;;;;;18.38;6.53;;;;;;;19.09;45.43;102061.34;4974009;28;20033;-74
2021/11/10 06:20:59;;;;;;;16.15;6.00;;;;;;;19.17;45.20;102060.47;4973932;28;20026;-73
2021/11/10 06:23:25;;;;;;;;;;;;;;;19.14;45.11;102061.16;4974375;28;20061;-73
2021/11/10 06:25:50;;;;;;;18.27;6.38;;;;;;;19.21;44.89;102053.09;4974234;28;19949;-73
2021/11/10 06:28:16;;;;;;;16.08;6.40;;;;;;;19.18;45.00;102053.75;4973766;28;20401;-73
2021/11/10 06:30:42;;;;;;;17.50;6.75;;;;;;;19.22;44.82;102057.47;4974157;28;20034;-73
2021/11/10 06:33:07;;;;;;;15.43;6.28;;;;;;;19.21;44.90;102063.38;4973900;28;20382;-73
2021/11/10 06:35:33;;;;;;;12.75;5.18;;;;;;;19.18;44.96;102067.63;4973795;28;20433;-73
2021/11/10 06:37:59;;;;;;;12.07;5.65;;;;;;;19.21;44.84;102066.16;4968990;28;20109;-73
2021/11/10 06:40:25;;;;;;;16.90;6.00;;;;;;;19.13;44.91;102065.88;4972121;28;20077;-73
2021/11/10 06:42:52;;;;;;;16.80;5.53;;;;;;;19.20;44.76;102070.06;4973729;28;20377;-72
2021/11/10 06:45:17;;;;;;;20.08;6.35;;;;;;;19.09;44.84;102077.97;4960207;28;20019;-76
2021/11/10 06:47:43;;;;;;;16.75;7.35;;;;;;;19.02;45.22;102078.50;4959202;28;20591;-75
2021/11/10 06:50:10;;;;;;;19.80;6.57;;;;;;;19.09;45.09;102083.50;4969091;28;20073;-74
2021/11/10 06:52:37;;;;;;;17.30;6.40;;;;;;;19.07;45.10;102075.53;4973523;28;20102;-75
2021/11/10 06:55:04;;;;;;;13.93;5.78;;;;;;;19.12;44.84;102080.06;4973329;28;20041;-74
2021/11/10 06:57:31;;;;;;;12.75;6.00;;;;;;;19.10;44.87;102093.44;4973485;28;20026;-74
2021/11/10 06:59:57;;;;;;;11.35;5.03;;;;;;;19.04;45.05;102092.00;4973455;28;20413;-74
2021/11/10 07:02:22;;;;;;;16.42;5.50;;;;;;;19.04;45.17;102092.84;4973712;28;20074;-75
2021/11/10 07:04:48;;;;;;;17.17;4.88;;;;;;;19.04;45.01;102092.00;4973595;28;20027;-75
2021/11/10 07:07:14;;;;;;;15.40;5.03;;;;;;;19.06;44.89;102093.31;4973057;28;20501;-74
2021/11/10 07:09:39;;;;;;;12.98;5.28;;;;;;;18.95;45.32;102096.81;4973433;28;20474;-74
2021/11/10 07:12:06;;;;;;;19.73;6.18;;;;;;;18.96;45.25;102101.19;4973506;28;20022;-75
2021/11/10 07:14:31;;;;;;;16.02;6.13;;;;;;;18.94;45.20;102098.78;4973458;28;20106;-75
2021/11/10 07:16:57;;;;;;;10.55;5.25;;;;;;;19.01;45.21;102106.53;4973518;28;20110;-74
2021/11/10 07:19:23;;;;;;;12.15;6.15;;;;;;;19.06;45.11;102106.34;4977015;28;20027;-75
2021/11/10 07:21:48;;;;;;;23.40;6.72;;;;;;;19.00;45.16;102111.28;4977488;28;20031;-74
2021/11/10 07:24:14;;;;;;;14.88;5.10;;;;;;;19.06;45.10;102111.91;4977161;28;20059;-74
2021/11/10 07:26:40;;;;;;;15.73;6.13;;;;;;;19.08;44.92;102106.81;4977249;28;20023;-75
2021/11/10 07:29:06;;;;;;;20.85;6.03;;;;;;;19.02;45.23;102116.47;4977153;28;20078;-74
2021/11/10 07:31:33;;;;;;;9.88;4.90;;;;;;;18.89;45.46;102118.34;4977233;28;20389;-74
2021/11/10 07:34:00;;;;;;;13.90;6.20;;;;;;;18.87;45.52;102119.84;4977042;28;20382;-75
2021/11/10 07:36:30;;;;;;;20.80;6.70;;;;;;;18.89;45.61;102125.84;4977139;28;20589;-75
2021/11/10 07:38:56;;;;;;;22.95;6.90;;;;;;;19.17;44.77;102124.19;4975810;28;20054;-77
2021/11/10 07:41:26;;;;;;;31.10;6.68;;;;;;;19.29;44.53;102121.47;4975716;28;20041;-75
2021/11/10 07:43:53;;;;;;;12.10;5.65;;;;;;;19.44;44.35;102131.13;4975769;28;20031;-74
2021/11/10 07:46:20;;;;;;;21.17;6.47;;;;;;;19.34;44.46;102129.56;4975576;28;20446;-74
2021/11/10 07:48:47;;;;;;;29.60;9.00;;;;;;;19.38;44.36;102129.72;4975998;28;20027;-73
2021/11/10 07:51:13;;;;;;;20.08;6.25;;;;;;;19.25;44.65;102128.03;4975623;28;20034;-74
2021/11/10 07:53:39;;;;;;;18.58;7.28;;;;;;;19.26;44.74;102136.00;4975917;28;20446;-74
2021/11/10 07:56:06;;;;;;;16.42;5.95;;;;;;;19.22;44.84;102137.03;4975499;28;20057;-76
2021/11/10 07:58:33;;;;;;;14.75;5.97;;;;;;;19.24;44.79;102145.81;4975475;28;20061;-75
2021/11/10 08:00:58;;;;;;;19.45;7.05;;;;;;;19.19;45.03;102143.22;4975167;28;20047;-74
2021/11/10 08:03:24;;;;;;;22.65;7.50;;;;;;;19.24;44.87;102148.59;4975544;28;20030;-75
2021/11/10 08:05:50;;;;;;;15.02;6.53;;;;;;;19.17;45.07;102154.66;4975341;28;20023;-75
2021/11/10 08:08:15;;;;;;;20.58;7.75;;;;;;;19.18;45.16;102149.91;4975266;28;20038;-74
2021/11/10 08:10:43;;;;;;;22.55;8.07;;;;;;;19.23;44.99;102150.53;4975538;28;20138;-74
2021/11/10 08:13:08;;;;;;;21.63;6.97;;;;;;;19.00;45.55;102141.75;4975402;28;20031;-75
2021/11/10 08:15:36;;;;;;;15.35;5.70;;;;;;;18.93;45.54;102151.72;4975104;28;20039;-76
2021/11/10 08:18:03;;;;;;;20.92;6.47;;;;;;;19.01;45.58;102153.63;4975186;28;20089;-75
2021/11/10 08:20:28;;;;;;;16.50;6.15;;;;;;;19.07;45.37;102160.59;4974982;28;20022;-75
2021/11/10 08:22:54;;;;;;;16.15;5.93;;;;;;;19.05;45.32;102165.69;4974415;28;20034;-76
2021/11/10 08:25:20;;;;;;;17.30;6.28;;;;;;;18.83;45.80;102170.38;4973604;28;20041;-75
2021/11/10 08:27:46;;;;;;;15.90;6.68;;;;;;;18.87;45.66;102153.88;4973481;28;20057;-78
2021/11/10 08:30:17;;;;;;;18.88;5.88;;;;;;;18.84;45.84;102162.88;4973748;28;20110;-77
2021/11/10 08:32:43;;;;;;;24.10;6.13;;;;;;;18.82;45.80;102168.75;4974729;28;20129;-74
2021/11/10 08:35:09;;;;;;;22.15;6.82;;;;;;;18.99;45.52;102164.25;4974495;28;20038;-74
2021/11/10 08:37:35;;;;;;;20.25;6.25;;;;;;;18.83;45.98;102158.47;4974488;28;20081;-77
2021/11/10 08:40:03;;;;;;;16.55;4.93;;;;;;;18.95;45.61;102174.34;4973607;28;20061;-74
2021/11/10 08:42:34;;;;;;;16.25;5.72;;;;;;;18.94;45.68;102170.78;4973374;28;20104;-74
2021/11/10 08:45:04;;;;;;;18.50;5.88;;;;;;;18.88;45.77;102172.13;4973653;28;20748;-74
2021/11/10 08:47:31;;;;;;;15.52;5.25;;;;;;;18.89;45.72;102164.63;4974045;28;20620;-74
2021/11/10 08:49:57;;;;;;;19.35;6.18;;;;;;;18.85;45.89;102167.25;4974359;28;20046;-74
2021/11/10 08:52:23;;;;;;;24.20;5.20;;;;;;;18.91;45.69;102167.88;4974163;28;20035;-74
2021/11/10 08:54:49;;;;;;;27.10;7.05;;;;;;;18.95;45.71;102171.59;4974267;28;20037;-76
2021/11/10 08:57:14;;;;;;;23.80;6.18;;;;;;;18.92;45.79;102172.28;4971720;28;20041;-76
2021/11/10 08:59:40;;;;;;;18.52;5.30;;;;;;;19.00;45.49;102174.97;4954950;28;20055;-77
2021/11/10 09:02:06;;;;;;;22.35;4.90;;;;;;;19.00;45.53;102182.47;4955213;29;20035;-78
2021/11/10 09:04:33;;;;;;;16.05;5.20;;;;;;;18.94;45.60;102179.09;4954487;28;20496;-76
2021/11/10 09:06:58;;;;;;;17.90;6.30;;;;;;;18.99;45.51;102181.69;4954893;29;20082;-78
2021/11/10 09:09:24;;;;;;;13.75;5.10;;;;;;;18.90;45.60;102186.47;4955134;29;20035;-77
2021/11/10 09:11:50;;;;;;;18.55;5.35;;;;;;;18.90;45.69;102189.22;4954857;29;20031;-77
2021/11/10 09:14:17;;;;;;;29.75;5.53;;;;;;;18.94;45.53;102197.66;4954869;28;20035;-78
2021/11/10 09:16:44;;;;;;;25.75;6.70;;;;;;;18.96;45.47;102195.38;4954846;28;20039;-78
2021/11/10 09:19:09;;;;;;;20.70;7.47;;;;;;;18.98;45.45;102190.31;4957353;28;20054;-79
2021/11/10 09:21:36;;;;;;;21.80;6.80;;;;;;;19.00;45.61;102190.78;4964572;28;20062;-78
2021/11/10 09:24:01;;;;;;;19.73;6.47;;;;;;;18.96;45.67;102207.25;4960297;28;20035;-80
2021/11/10 09:26:27;;;;;;;13.10;4.45;;;;;;;19.10;45.28;102207.03;4956348;29;20111;-76
2021/11/10 09:28:54;;;;;;;15.13;4.75;;;;;;;19.04;45.41;102206.41;4956352;28;20386;-77
2021/11/10 09:31:21;;;;;;;16.52;5.75;;;;;;;19.02;45.53;102208.69;4955309;29;20031;-77
2021/11/10 09:33:48;;;;;;;12.55;5.00;;;;;;;19.11;45.45;102214.19;4968884;28;20425;-75
2021/11/10 09:36:14;;;;;;;20.35;5.43;;;;;;;19.15;45.51;102212.38;4973682;28;20147;-77
2021/11/10 09:38:40;;;;;;;16.17;5.13;;;;;;;19.19;45.52;102213.31;4973725;28;20034;-75
2021/11/10 09:41:08;;;;;;;13.43;5.13;;;;;;;19.25;45.40;102213.94;4973604;28;20480;-75
2021/11/10 09:43:37;;;;;;;9.60;4.70;;;;;;;19.20;45.51;102212.19;4973667;28;20109;-77
2021/11/10 09:46:07;;;;;;;18.75;4.50;;;;;;;19.17;45.74;102212.84;4973660;28;20023;-76
2021/11/10 09:48:34;;;;;;;19.23;4.90;;;;;;;19.26;45.54;102207.22;4973463;28;20042;-77
2021/11/10 09:51:00;;;;;;;12.20;5.35;;;;;;;19.31;45.56;102207.06;4973380;28;20540;-76
2021/11/10 09:53:26;;;;;;;14.77;5.43;;;;;;;19.28;45.80;102208.53;4970898;28;20110;-75
2021/11/10 09:55:54;;;;;;;21.23;6.18;;;;;;;19.32;45.84;102205.91;4961714;28;20105;-72
2021/11/10 09:58:20;;;;;;;12.00;5.07;;;;;;;19.41;45.69;102213.00;4966980;28;20161;-73
2021/11/10 10:00:58;;;;;;;16.00;5.82;;;;;;;19.34;45.63;102217.44;4962419;28;20130;-76
2021/11/10 10:03:24;;;;;;;18.20;6.63;;;;;;;19.41;45.44;102221.31;4961870;28;20023;-76
2021/11/10 10:05:53;;;;;;;18.63;7.40;;;;;;;19.28;45.78;102213.28;4963188;28;20018;-75
2021/11/10 10:08:21;;;;;;;21.70;8.32;;;;;;;19.44;45.32;102219.03;4962879;28;20158;-73
2021/11/10 10:10:47;;;;;;;15.15;6.95;;;;;;;19.62;44.86;102218.56;4963375;28;20041;-72
2021/11/10 10:13:14;;;;;;;15.93;8.02;;;;;;;19.49;45.15;102227.94;4962221;28;20029;-75
2021/11/10 10:15:42;;;;;;;20.25;9.90;;;;;;;19.49;45.11;102227.94;4961604;28;20019;-76
2021/11/10 10:18:17;;;;;;;19.38;10.23;;;;;;;19.57;45.35;102229.03;4963568;28;20406;-75
2021/11/10 10:20:43;;;;;;;21.02;10.20;;;;;;;19.69;45.24;102231.91;4963707;28;20018;-74
2021/11/10 10:23:18;;;;;;;27.52;12.40;;;;;;;19.71;45.38;102229.59;4962784;28;20482;-74
2021/11/10 10:25:48;;;;;;;33.28;12.68;;;;;;;19.79;45.35;102227.88;4963260;28;20169;-75
2021/11/10 10:28:24;;;;;;;24.10;11.77;;;;;;;19.90;45.14;102227.16;4962116;28;20081;-77
2021/11/10 10:30:53;;;;;;;28.48;13.02;;;;;;;19.99;45.00;102229.84;4963104;28;20034;-72
2021/11/10 10:33:25;;;;;;;21.80;10.63;;;;;;;20.06;44.99;102230.09;4963013;28;20023;-73
2021/11/10 10:35:52;;;;;;;20.60;11.93;;;;;;;19.90;45.32;102223.56;4962964;28;20019;-74
2021/11/10 10:38:22;;;;;;;24.48;12.18;;;;;;;20.08;44.86;102224.19;4962456;28;20019;-74
2021/11/10 10:40:51;;;;;;;22.58;11.00;;;;;;;20.18;44.59;102223.78;4960236;28;20023;-72
2021/11/10 10:43:18;;;;;;;20.00;10.20;;;;;;;20.11;44.80;102229.88;4963568;28;20031;-73
2021/11/10 10:45:48;;;;;;;20.00;9.77;;;;;;;20.21;44.62;102223.91;4964701;28;20026;-73
2021/11/10 10:48:16;;;;;;;14.65;9.20;;;;;;;20.39;44.21;102226.47;4963911;28;20026;-72
2021/11/10 10:50:53;;;;;;;17.92;9.15;;;;;;;20.45;43.99;102220.38;4963942;28;20042;-73
2021/11/10 10:53:40;;;;;;;15.45;8.20;;;;;;;20.49;43.98;102218.56;4967661;28;20027;-72
2021/11/10 10:56:18;;;;;;;16.55;9.15;;;;;;;20.46;44.27;102219.22;4971038;28;20065;-73
2021/11/10 10:58:44;;;;;;;24.05;9.43;;;;;;;20.69;43.91;102218.78;4968380;28;20047;-72
2021/11/10 11:01:28;;;;;;;10.68;7.28;;;;;;;20.82;43.79;102217.66;4969559;28;20043;-73
2021/11/10 11:03:58;;;;;;;15.18;8.25;;;;;;;20.65;44.20;102207.59;4970609;28;20049;-73
2021/11/10 11:06:39;;;;;;;17.88;8.02;;;;;;;20.91;43.93;102204.44;4970220;28;20027;-73
2021/11/10 11:09:18;;;;;;;16.77;7.00;;;;;;;21.13;43.33;102207.91;4970343;28;20022;-73
2021/11/10 11:12:01;;;;;;;10.40;5.90;;;;;;;21.18;43.25;102210.44;4970252;28;20027;-72
2021/11/10 11:17:21;;;;;;;15.73;5.97;;;;;;;21.22;42.98;102212.16;4970383;28;20018;-73
2021/11/10 11:19:50;;;;;;;13.38;5.85;;;;;;;21.28;43.05;102218.34;4971191;28;20099;-73